sensor_id;sensor_type;location;lat;lon;timestamp;temperature;humidity
78886;DHT22;68269;52.514;5.722;2023-03-19T00:01:58;13.30;62.90
78886;DHT22;68269;52.514;5.722;2023-03-19T00:04:28;13.30;62.90
78886;DHT22;68269;52.514;5.722;2023-03-19T00:06:57;13.30;63.00
78886;DHT22;68269;52.514;5.722;2023-03-19T00:09:29;13.30;63.00
78886;DHT22;68269;52.514;5.722;2023-03-19T00:11:59;13.30;63.00
78886;DHT22;68269;52.514;5.722;2023-03-19T00:14:28;13.30;63.00
78886;DHT22;68269;52.514;5.722;2023-03-19T00:16:57;13.30;62.90
78886;DHT22;68269;52.514;5.722;2023-03-19T00:19:27;13.30;62.90
78886;DHT22;68269;52.514;5.722;2023-03-19T00:21:56;13.30;62.90
78886;DHT22;68269;52.514;5.722;2023-03-19T00:24:25;13.30;63.00
78886;DHT22;68269;52.514;5.722;2023-03-19T00:26:58;13.30;63.00
78886;DHT22;68269;52.514;5.722;2023-03-19T00:29:29;13.30;63.00
78886;DHT22;68269;52.514;5.722;2023-03-19T00:31:58;13.30;63.10
78886;DHT22;68269;52.514;5.722;2023-03-19T00:34:27;13.30;63.10
78886;DHT22;68269;52.514;5.722;2023-03-19T00:36:56;13.30;63.20
78886;DHT22;68269;52.514;5.722;2023-03-19T00:39:26;13.20;63.20
78886;DHT22;68269;52.514;5.722;2023-03-19T00:41:58;13.20;63.20
78886;DHT22;68269;52.514;5.722;2023-03-19T00:44:27;13.20;63.30
78886;DHT22;68269;52.514;5.722;2023-03-19T00:46:56;13.20;63.30
78886;DHT22;68269;52.514;5.722;2023-03-19T00:49:26;13.20;63.30
78886;DHT22;68269;52.514;5.722;2023-03-19T00:51:55;13.10;63.30
78886;DHT22;68269;52.514;5.722;2023-03-19T00:54:24;13.10;63.40
78886;DHT22;68269;52.514;5.722;2023-03-19T00:56:53;13.10;63.40
78886;DHT22;68269;52.514;5.722;2023-03-19T00:59:26;13.10;63.50
78886;DHT22;68269;52.514;5.722;2023-03-19T01:01:55;13.10;63.50
78886;DHT22;68269;52.514;5.722;2023-03-19T01:04:25;13.10;63.40
78886;DHT22;68269;52.514;5.722;2023-03-19T01:06:54;13.10;63.50
78886;DHT22;68269;52.514;5.722;2023-03-19T01:09:25;13.10;63.50
78886;DHT22;68269;52.514;5.722;2023-03-19T01:11:55;13.10;63.60
78886;DHT22;68269;52.514;5.722;2023-03-19T01:14:27;13.00;63.60
78886;DHT22;68269;52.514;5.722;2023-03-19T01:16:56;13.00;63.60
78886;DHT22;68269;52.514;5.722;2023-03-19T01:19:26;13.00;63.70
78886;DHT22;68269;52.514;5.722;2023-03-19T01:21:55;13.00;63.70
78886;DHT22;68269;52.514;5.722;2023-03-19T01:24:28;13.00;63.70
78886;DHT22;68269;52.514;5.722;2023-03-19T01:26:58;13.00;63.70
78886;DHT22;68269;52.514;5.722;2023-03-19T01:29:34;13.00;63.70
78886;DHT22;68269;52.514;5.722;2023-03-19T01:32:19;13.00;63.70
78886;DHT22;68269;52.514;5.722;2023-03-19T01:35:04;13.00;63.80
78886;DHT22;68269;52.514;5.722;2023-03-19T01:37:35;13.00;63.70
78886;DHT22;68269;52.514;5.722;2023-03-19T01:40:06;12.90;63.70
78886;DHT22;68269;52.514;5.722;2023-03-19T01:42:51;12.90;63.70
78886;DHT22;68269;52.514;5.722;2023-03-19T01:45:49;12.90;63.80
78886;DHT22;68269;52.514;5.722;2023-03-19T01:48:41;12.90;63.80
78886;DHT22;68269;52.514;5.722;2023-03-19T01:51:16;12.80;63.80
78886;DHT22;68269;52.514;5.722;2023-03-19T01:53:51;12.80;63.90
78886;DHT22;68269;52.514;5.722;2023-03-19T01:56:41;12.80;64.00
78886;DHT22;68269;52.514;5.722;2023-03-19T01:59:29;12.80;64.00
78886;DHT22;68269;52.514;5.722;2023-03-19T02:02:26;12.80;64.00
78886;DHT22;68269;52.514;5.722;2023-03-19T02:05:02;12.80;64.00
78886;DHT22;68269;52.514;5.722;2023-03-19T02:07:34;12.70;64.10
78886;DHT22;68269;52.514;5.722;2023-03-19T02:10:06;12.70;64.20
78886;DHT22;68269;52.514;5.722;2023-03-19T02:12:36;12.70;64.20
78886;DHT22;68269;52.514;5.722;2023-03-19T02:15:06;12.70;64.30
78886;DHT22;68269;52.514;5.722;2023-03-19T02:17:39;12.70;64.30
78886;DHT22;68269;52.514;5.722;2023-03-19T02:20:13;12.60;64.40
78886;DHT22;68269;52.514;5.722;2023-03-19T02:22:52;12.60;64.40
78886;DHT22;68269;52.514;5.722;2023-03-19T02:25:29;12.60;64.50
78886;DHT22;68269;52.514;5.722;2023-03-19T02:28:04;12.60;64.50
78886;DHT22;68269;52.514;5.722;2023-03-19T02:30:35;12.50;64.50
78886;DHT22;68269;52.514;5.722;2023-03-19T02:33:11;12.50;64.50
78886;DHT22;68269;52.514;5.722;2023-03-19T02:35:41;12.50;64.50
78886;DHT22;68269;52.514;5.722;2023-03-19T02:38:13;12.50;64.60
78886;DHT22;68269;52.514;5.722;2023-03-19T02:40:46;12.50;64.60
78886;DHT22;68269;52.514;5.722;2023-03-19T02:43:20;12.50;64.60
78886;DHT22;68269;52.514;5.722;2023-03-19T02:45:51;12.50;64.70
78886;DHT22;68269;52.514;5.722;2023-03-19T02:48:21;12.50;64.70
78886;DHT22;68269;52.514;5.722;2023-03-19T02:50:51;12.50;64.70
78886;DHT22;68269;52.514;5.722;2023-03-19T02:53:21;12.50;64.70
78886;DHT22;68269;52.514;5.722;2023-03-19T02:55:51;12.50;64.80
78886;DHT22;68269;52.514;5.722;2023-03-19T02:58:23;12.50;64.70
78886;DHT22;68269;52.514;5.722;2023-03-19T03:00:52;12.50;64.70
78886;DHT22;68269;52.514;5.722;2023-03-19T03:03:22;12.50;64.70
78886;DHT22;68269;52.514;5.722;2023-03-19T03:05:51;12.50;64.70
78886;DHT22;68269;52.514;5.722;2023-03-19T03:08:21;12.50;64.80
78886;DHT22;68269;52.514;5.722;2023-03-19T03:10:50;12.50;64.80
78886;DHT22;68269;52.514;5.722;2023-03-19T03:13:19;12.50;64.80
78886;DHT22;68269;52.514;5.722;2023-03-19T03:15:51;12.50;64.80
78886;DHT22;68269;52.514;5.722;2023-03-19T03:18:21;12.50;64.90
78886;DHT22;68269;52.514;5.722;2023-03-19T03:20:51;12.50;64.90
78886;DHT22;68269;52.514;5.722;2023-03-19T03:23:20;12.50;65.00
78886;DHT22;68269;52.514;5.722;2023-03-19T03:25:50;12.40;65.00
78886;DHT22;68269;52.514;5.722;2023-03-19T03:28:20;12.40;65.00
78886;DHT22;68269;52.514;5.722;2023-03-19T03:30:57;12.30;65.00
78886;DHT22;68269;52.514;5.722;2023-03-19T03:33:27;12.30;65.10
78886;DHT22;68269;52.514;5.722;2023-03-19T03:35:57;12.30;65.10
78886;DHT22;68269;52.514;5.722;2023-03-19T03:38:26;12.30;65.10
78886;DHT22;68269;52.514;5.722;2023-03-19T03:40:58;12.30;65.10
78886;DHT22;68269;52.514;5.722;2023-03-19T03:43:27;12.20;65.10
78886;DHT22;68269;52.514;5.722;2023-03-19T03:46:00;12.20;65.20
78886;DHT22;68269;52.514;5.722;2023-03-19T03:48:30;12.30;65.10
78886;DHT22;68269;52.514;5.722;2023-03-19T03:50:59;12.20;65.10
78886;DHT22;68269;52.514;5.722;2023-03-19T03:53:29;12.20;65.20
78886;DHT22;68269;52.514;5.722;2023-03-19T03:55:59;12.20;65.20
78886;DHT22;68269;52.514;5.722;2023-03-19T03:58:30;12.20;65.20
78886;DHT22;68269;52.514;5.722;2023-03-19T04:01:02;12.10;65.20
78886;DHT22;68269;52.514;5.722;2023-03-19T04:03:32;12.10;65.30
78886;DHT22;68269;52.514;5.722;2023-03-19T04:06:01;12.10;65.30
78886;DHT22;68269;52.514;5.722;2023-03-19T04:08:31;12.10;65.30
78886;DHT22;68269;52.514;5.722;2023-03-19T04:11:05;12.10;65.30
78886;DHT22;68269;52.514;5.722;2023-03-19T04:13:35;12.00;65.40
78886;DHT22;68269;52.514;5.722;2023-03-19T04:16:09;12.00;65.40
78886;DHT22;68269;52.514;5.722;2023-03-19T04:18:38;11.90;65.40
78886;DHT22;68269;52.514;5.722;2023-03-19T04:21:08;11.90;65.30
78886;DHT22;68269;52.514;5.722;2023-03-19T04:23:37;11.90;65.30
78886;DHT22;68269;52.514;5.722;2023-03-19T04:26:07;11.90;65.40
78886;DHT22;68269;52.514;5.722;2023-03-19T04:28:37;11.80;65.40
78886;DHT22;68269;52.514;5.722;2023-03-19T04:31:10;11.80;65.40
78886;DHT22;68269;52.514;5.722;2023-03-19T04:33:43;11.70;65.50
78886;DHT22;68269;52.514;5.722;2023-03-19T04:36:12;11.70;65.40
78886;DHT22;68269;52.514;5.722;2023-03-19T04:38:43;11.70;65.50
78886;DHT22;68269;52.514;5.722;2023-03-19T04:41:13;11.70;65.60
78886;DHT22;68269;52.514;5.722;2023-03-19T04:43:56;11.70;65.50
78886;DHT22;68269;52.514;5.722;2023-03-19T04:46:30;11.60;65.50
78886;DHT22;68269;52.514;5.722;2023-03-19T04:48:59;11.50;65.50
78886;DHT22;68269;52.514;5.722;2023-03-19T04:51:29;11.50;65.50
78886;DHT22;68269;52.514;5.722;2023-03-19T04:53:58;11.50;65.50
78886;DHT22;68269;52.514;5.722;2023-03-19T04:56:29;11.50;65.50
78886;DHT22;68269;52.514;5.722;2023-03-19T04:58:58;11.40;65.50
78886;DHT22;68269;52.514;5.722;2023-03-19T05:01:30;11.40;65.50
78886;DHT22;68269;52.514;5.722;2023-03-19T05:04:04;11.30;65.50
78886;DHT22;68269;52.514;5.722;2023-03-19T05:06:35;11.30;65.50
78886;DHT22;68269;52.514;5.722;2023-03-19T05:09:06;11.10;65.50
78886;DHT22;68269;52.514;5.722;2023-03-19T05:11:35;11.10;65.50
78886;DHT22;68269;52.514;5.722;2023-03-19T05:14:10;11.10;65.50
78886;DHT22;68269;52.514;5.722;2023-03-19T05:17:05;11.00;65.40
78886;DHT22;68269;52.514;5.722;2023-03-19T05:19:48;11.00;65.40
78886;DHT22;68269;52.514;5.722;2023-03-19T05:22:18;11.00;65.40
78886;DHT22;68269;52.514;5.722;2023-03-19T05:24:47;10.90;65.40
78886;DHT22;68269;52.514;5.722;2023-03-19T05:27:17;10.90;65.40
78886;DHT22;68269;52.514;5.722;2023-03-19T05:29:52;10.80;65.50
78886;DHT22;68269;52.514;5.722;2023-03-19T05:32:50;10.80;65.40
78886;DHT22;68269;52.514;5.722;2023-03-19T05:35:40;10.80;65.40
78886;DHT22;68269;52.514;5.722;2023-03-19T05:38:19;10.80;65.40
78886;DHT22;68269;52.514;5.722;2023-03-19T05:40:55;10.70;65.40
78886;DHT22;68269;52.514;5.722;2023-03-19T05:43:31;10.70;65.30
78886;DHT22;68269;52.514;5.722;2023-03-19T05:46:05;10.60;65.30
78886;DHT22;68269;52.514;5.722;2023-03-19T05:48:37;10.60;65.40
78886;DHT22;68269;52.514;5.722;2023-03-19T05:51:08;10.60;65.40
78886;DHT22;68269;52.514;5.722;2023-03-19T05:53:41;10.60;65.40
78886;DHT22;68269;52.514;5.722;2023-03-19T05:56:32;10.60;65.40
78886;DHT22;68269;52.514;5.722;2023-03-19T05:59:21;10.60;65.40
78886;DHT22;68269;52.514;5.722;2023-03-19T06:02:03;10.60;65.40
78886;DHT22;68269;52.514;5.722;2023-03-19T06:04:36;10.60;65.40
78886;DHT22;68269;52.514;5.722;2023-03-19T06:07:06;10.50;65.40
78886;DHT22;68269;52.514;5.722;2023-03-19T06:09:36;10.50;65.40
78886;DHT22;68269;52.514;5.722;2023-03-19T06:12:07;10.60;65.40
78886;DHT22;68269;52.514;5.722;2023-03-19T06:14:54;10.60;65.30
78886;DHT22;68269;52.514;5.722;2023-03-19T06:17:49;10.70;65.30
78886;DHT22;68269;52.514;5.722;2023-03-19T06:20:21;10.70;65.30
78886;DHT22;68269;52.514;5.722;2023-03-19T06:22:51;10.70;65.30
78886;DHT22;68269;52.514;5.722;2023-03-19T06:25:21;10.80;65.40
78886;DHT22;68269;52.514;5.722;2023-03-19T06:27:51;10.80;65.40
78886;DHT22;68269;52.514;5.722;2023-03-19T06:30:25;10.90;65.40
78886;DHT22;68269;52.514;5.722;2023-03-19T06:32:57;10.90;65.50
78886;DHT22;68269;52.514;5.722;2023-03-19T06:35:30;10.90;65.50
78886;DHT22;68269;52.514;5.722;2023-03-19T06:38:00;11.00;65.50
78886;DHT22;68269;52.514;5.722;2023-03-19T06:40:29;11.00;65.50
78886;DHT22;68269;52.514;5.722;2023-03-19T06:42:59;11.00;65.60
78886;DHT22;68269;52.514;5.722;2023-03-19T06:45:28;11.10;65.60
78886;DHT22;68269;52.514;5.722;2023-03-19T06:47:57;11.10;65.60
78886;DHT22;68269;52.514;5.722;2023-03-19T06:50:29;11.10;65.70
78886;DHT22;68269;52.514;5.722;2023-03-19T06:52:59;11.20;65.70
78886;DHT22;68269;52.514;5.722;2023-03-19T06:55:28;11.20;65.70
78886;DHT22;68269;52.514;5.722;2023-03-19T06:57:58;11.30;65.70
78886;DHT22;68269;52.514;5.722;2023-03-19T07:00:27;11.30;65.70
78886;DHT22;68269;52.514;5.722;2023-03-19T07:02:56;11.30;65.70
78886;DHT22;68269;52.514;5.722;2023-03-19T07:05:26;11.30;65.70
78886;DHT22;68269;52.514;5.722;2023-03-19T07:07:57;11.30;65.70
78886;DHT22;68269;52.514;5.722;2023-03-19T07:10:27;11.30;65.80
78886;DHT22;68269;52.514;5.722;2023-03-19T07:12:56;11.30;65.70
78886;DHT22;68269;52.514;5.722;2023-03-19T07:15:25;11.30;65.80
78886;DHT22;68269;52.514;5.722;2023-03-19T07:17:55;11.30;65.80
78886;DHT22;68269;52.514;5.722;2023-03-19T07:20:24;11.30;65.80
78886;DHT22;68269;52.514;5.722;2023-03-19T07:22:53;11.30;65.70
78886;DHT22;68269;52.514;5.722;2023-03-19T07:25:25;11.30;65.70
78886;DHT22;68269;52.514;5.722;2023-03-19T07:27:55;11.30;65.80
78886;DHT22;68269;52.514;5.722;2023-03-19T07:30:24;11.30;65.80
78886;DHT22;68269;52.514;5.722;2023-03-19T07:32:54;11.20;65.80
78886;DHT22;68269;52.514;5.722;2023-03-19T07:35:23;11.30;65.80
78886;DHT22;68269;52.514;5.722;2023-03-19T07:37:53;11.20;65.80
78886;DHT22;68269;52.514;5.722;2023-03-19T07:40:24;11.10;65.90
78886;DHT22;68269;52.514;5.722;2023-03-19T07:42:54;11.20;65.90
78886;DHT22;68269;52.514;5.722;2023-03-19T07:45:23;11.30;65.90
78886;DHT22;68269;52.514;5.722;2023-03-19T07:47:52;11.40;65.70
78886;DHT22;68269;52.514;5.722;2023-03-19T07:50:21;11.50;65.70
78886;DHT22;68269;52.514;5.722;2023-03-19T07:52:51;11.50;65.60
78886;DHT22;68269;52.514;5.722;2023-03-19T07:55:20;11.40;65.70
78886;DHT22;68269;52.514;5.722;2023-03-19T07:57:52;11.50;65.70
78886;DHT22;68269;52.514;5.722;2023-03-19T08:00:21;11.40;65.70
78886;DHT22;68269;52.514;5.722;2023-03-19T08:02:51;11.40;65.80
78886;DHT22;68269;52.514;5.722;2023-03-19T08:05:20;11.40;65.80
78886;DHT22;68269;52.514;5.722;2023-03-19T08:07:50;11.30;65.80
78886;DHT22;68269;52.514;5.722;2023-03-19T08:10:19;11.30;65.90
78886;DHT22;68269;52.514;5.722;2023-03-19T08:12:48;11.10;66.00
78886;DHT22;68269;52.514;5.722;2023-03-19T08:15:20;11.10;66.10
78886;DHT22;68269;52.514;5.722;2023-03-19T08:17:57;11.10;66.10
78886;DHT22;68269;52.514;5.722;2023-03-19T08:20:26;11.10;66.10
78886;DHT22;68269;52.514;5.722;2023-03-19T08:22:56;11.10;66.10
78886;DHT22;68269;52.514;5.722;2023-03-19T08:25:25;11.10;66.00
78886;DHT22;68269;52.514;5.722;2023-03-19T08:27:57;11.10;66.00
78886;DHT22;68269;52.514;5.722;2023-03-19T08:30:29;11.10;66.00
78886;DHT22;68269;52.514;5.722;2023-03-19T08:32:59;11.10;66.00
78886;DHT22;68269;52.514;5.722;2023-03-19T08:35:29;11.10;66.10
78886;DHT22;68269;52.514;5.722;2023-03-19T08:37:58;11.10;66.10
78886;DHT22;68269;52.514;5.722;2023-03-19T08:40:27;11.10;66.20
78886;DHT22;68269;52.514;5.722;2023-03-19T08:42:57;11.00;66.20
78886;DHT22;68269;52.514;5.722;2023-03-19T08:45:29;10.90;66.30
78886;DHT22;68269;52.514;5.722;2023-03-19T08:47:58;10.80;66.30
78886;DHT22;68269;52.514;5.722;2023-03-19T08:50:27;10.80;66.40
78886;DHT22;68269;52.514;5.722;2023-03-19T08:52:57;10.80;66.40
78886;DHT22;68269;52.514;5.722;2023-03-19T08:55:26;10.80;66.40
78886;DHT22;68269;52.514;5.722;2023-03-19T08:57:56;10.80;66.40
78886;DHT22;68269;52.514;5.722;2023-03-19T09:00:25;10.80;66.40
78886;DHT22;68269;52.514;5.722;2023-03-19T09:02:57;10.80;66.40
78886;DHT22;68269;52.514;5.722;2023-03-19T09:05:26;10.90;66.30
78886;DHT22;68269;52.514;5.722;2023-03-19T09:07:56;10.90;66.30
78886;DHT22;68269;52.514;5.722;2023-03-19T09:10:25;10.90;66.30
78886;DHT22;68269;52.514;5.722;2023-03-19T09:12:55;10.90;66.20
78886;DHT22;68269;52.514;5.722;2023-03-19T09:15:24;10.90;66.20
78886;DHT22;68269;52.514;5.722;2023-03-19T09:17:53;10.90;66.30
78886;DHT22;68269;52.514;5.722;2023-03-19T09:20:25;11.00;66.20
78886;DHT22;68269;52.514;5.722;2023-03-19T09:22:55;11.10;66.10
78886;DHT22;68269;52.514;5.722;2023-03-19T09:25:24;11.10;66.10
78886;DHT22;68269;52.514;5.722;2023-03-19T09:27:53;11.10;66.20
78886;DHT22;68269;52.514;5.722;2023-03-19T09:30:22;11.10;66.20
78886;DHT22;68269;52.514;5.722;2023-03-19T09:32:52;11.10;66.10
78886;DHT22;68269;52.514;5.722;2023-03-19T09:35:21;11.10;66.10
78886;DHT22;68269;52.514;5.722;2023-03-19T09:37:59;11.30;66.00
78886;DHT22;68269;52.514;5.722;2023-03-19T09:40:32;11.30;66.10
78886;DHT22;68269;52.514;5.722;2023-03-19T09:43:17;11.30;66.00
78886;DHT22;68269;52.514;5.722;2023-03-19T09:45:53;11.40;66.10
78886;DHT22;68269;52.514;5.722;2023-03-19T09:48:30;11.40;66.00
78886;DHT22;68269;52.514;5.722;2023-03-19T09:51:02;11.30;66.10
78886;DHT22;68269;52.514;5.722;2023-03-19T09:53:41;11.30;66.10
78886;DHT22;68269;52.514;5.722;2023-03-19T09:56:15;11.40;66.10
78886;DHT22;68269;52.514;5.722;2023-03-19T09:58:44;11.40;66.10
78886;DHT22;68269;52.514;5.722;2023-03-19T10:01:23;11.40;66.10
78886;DHT22;68269;52.514;5.722;2023-03-19T10:04:07;11.30;66.20
78886;DHT22;68269;52.514;5.722;2023-03-19T10:06:41;11.30;66.20
78886;DHT22;68269;52.514;5.722;2023-03-19T10:09:31;11.30;66.20
78886;DHT22;68269;52.514;5.722;2023-03-19T10:12:12;11.30;66.30
78886;DHT22;68269;52.514;5.722;2023-03-19T10:14:55;11.40;66.20
78886;DHT22;68269;52.514;5.722;2023-03-19T10:17:31;11.40;66.20
78886;DHT22;68269;52.514;5.722;2023-03-19T10:20:05;11.40;66.20
78886;DHT22;68269;52.514;5.722;2023-03-19T10:22:38;11.30;66.30
78886;DHT22;68269;52.514;5.722;2023-03-19T10:25:17;11.40;66.30
78886;DHT22;68269;52.514;5.722;2023-03-19T10:27:53;11.40;66.30
78886;DHT22;68269;52.514;5.722;2023-03-19T10:30:24;11.40;66.20
78886;DHT22;68269;52.514;5.722;2023-03-19T10:33:04;11.40;66.30
78886;DHT22;68269;52.514;5.722;2023-03-19T10:35:40;11.40;66.40
78886;DHT22;68269;52.514;5.722;2023-03-19T10:38:20;11.40;66.20
78886;DHT22;68269;52.514;5.722;2023-03-19T10:41:02;11.50;66.20
78886;DHT22;68269;52.514;5.722;2023-03-19T10:43:32;11.50;66.10
78886;DHT22;68269;52.514;5.722;2023-03-19T10:46:02;11.50;66.10
78886;DHT22;68269;52.514;5.722;2023-03-19T10:48:32;11.70;66.00
78886;DHT22;68269;52.514;5.722;2023-03-19T10:51:03;11.70;66.00
78886;DHT22;68269;52.514;5.722;2023-03-19T10:53:34;11.70;66.00
78886;DHT22;68269;52.514;5.722;2023-03-19T10:56:17;11.70;66.00
78886;DHT22;68269;52.514;5.722;2023-03-19T10:58:59;11.70;66.10
78886;DHT22;68269;52.514;5.722;2023-03-19T11:01:32;11.70;66.10
78886;DHT22;68269;52.514;5.722;2023-03-19T11:04:11;11.70;66.10
78886;DHT22;68269;52.514;5.722;2023-03-19T11:06:40;11.70;66.10
78886;DHT22;68269;52.514;5.722;2023-03-19T11:09:17;11.70;66.10
78886;DHT22;68269;52.514;5.722;2023-03-19T11:11:52;11.70;66.20
78886;DHT22;68269;52.514;5.722;2023-03-19T11:14:28;11.60;66.20
78886;DHT22;68269;52.514;5.722;2023-03-19T11:17:04;11.50;66.20
78886;DHT22;68269;52.514;5.722;2023-03-19T11:19:39;11.50;66.30
78886;DHT22;68269;52.514;5.722;2023-03-19T11:22:15;11.50;66.40
78886;DHT22;68269;52.514;5.722;2023-03-19T11:24:54;11.60;66.30
78886;DHT22;68269;52.514;5.722;2023-03-19T11:27:31;11.60;66.30
78886;DHT22;68269;52.514;5.722;2023-03-19T11:30:02;11.60;66.30
78886;DHT22;68269;52.514;5.722;2023-03-19T11:35:25;11.70;66.30
78886;DHT22;68269;52.514;5.722;2023-03-19T11:37:59;11.70;66.30
78886;DHT22;68269;52.514;5.722;2023-03-19T11:40:35;11.70;66.30
78886;DHT22;68269;52.514;5.722;2023-03-19T11:43:32;11.80;66.20
78886;DHT22;68269;52.514;5.722;2023-03-19T11:46:11;11.80;66.20
78886;DHT22;68269;52.514;5.722;2023-03-19T11:48:58;11.80;66.20
78886;DHT22;68269;52.514;5.722;2023-03-19T11:51:35;11.90;66.20
78886;DHT22;68269;52.514;5.722;2023-03-19T11:54:12;11.80;66.30
78886;DHT22;68269;52.514;5.722;2023-03-19T11:56:47;11.80;66.30
78886;DHT22;68269;52.514;5.722;2023-03-19T11:59:40;11.80;66.30
78886;DHT22;68269;52.514;5.722;2023-03-19T12:02:36;11.80;66.40
78886;DHT22;68269;52.514;5.722;2023-03-19T12:05:22;11.80;66.50
78886;DHT22;68269;52.514;5.722;2023-03-19T12:08:07;11.80;66.40
78886;DHT22;68269;52.514;5.722;2023-03-19T12:10:54;11.80;66.40
78886;DHT22;68269;52.514;5.722;2023-03-19T12:13:35;11.70;66.40
78886;DHT22;68269;52.514;5.722;2023-03-19T12:16:16;11.80;66.40
78886;DHT22;68269;52.514;5.722;2023-03-19T12:19:11;11.90;66.40
78886;DHT22;68269;52.514;5.722;2023-03-19T12:21:55;11.90;66.40
78886;DHT22;68269;52.514;5.722;2023-03-19T12:24:34;11.90;66.40
78886;DHT22;68269;52.514;5.722;2023-03-19T12:27:18;11.90;66.30
78886;DHT22;68269;52.514;5.722;2023-03-19T12:29:56;12.00;66.30
78886;DHT22;68269;52.514;5.722;2023-03-19T12:32:43;12.10;66.20
78886;DHT22;68269;52.514;5.722;2023-03-19T12:35:23;12.10;66.30
78886;DHT22;68269;52.514;5.722;2023-03-19T12:37:57;12.10;66.20
78886;DHT22;68269;52.514;5.722;2023-03-19T12:40:31;12.10;66.20
78886;DHT22;68269;52.514;5.722;2023-03-19T12:43:07;12.10;66.30
78886;DHT22;68269;52.514;5.722;2023-03-19T12:45:41;12.00;66.40
78886;DHT22;68269;52.514;5.722;2023-03-19T12:48:19;12.00;66.50
78886;DHT22;68269;52.514;5.722;2023-03-19T12:50:53;12.00;66.50
78886;DHT22;68269;52.514;5.722;2023-03-19T12:53:32;12.00;66.40
78886;DHT22;68269;52.514;5.722;2023-03-19T12:56:07;12.00;66.40
78886;DHT22;68269;52.514;5.722;2023-03-19T12:58:45;12.10;66.40
78886;DHT22;68269;52.514;5.722;2023-03-19T13:01:20;12.10;66.40
78886;DHT22;68269;52.514;5.722;2023-03-19T13:03:58;12.20;66.30
78886;DHT22;68269;52.514;5.722;2023-03-19T13:06:33;12.20;66.40
78886;DHT22;68269;52.514;5.722;2023-03-19T13:09:07;12.30;66.20
78886;DHT22;68269;52.514;5.722;2023-03-19T13:11:45;12.30;66.20
78886;DHT22;68269;52.514;5.722;2023-03-19T13:14:21;12.30;66.30
78886;DHT22;68269;52.514;5.722;2023-03-19T13:16:58;12.20;66.30
78886;DHT22;68269;52.514;5.722;2023-03-19T13:19:37;12.20;66.40
78886;DHT22;68269;52.514;5.722;2023-03-19T13:22:12;12.20;66.40
78886;DHT22;68269;52.514;5.722;2023-03-19T13:24:44;12.10;66.50
78886;DHT22;68269;52.514;5.722;2023-03-19T13:27:21;12.10;66.50
78886;DHT22;68269;52.514;5.722;2023-03-19T13:29:59;12.10;66.50
78886;DHT22;68269;52.514;5.722;2023-03-19T13:32:35;12.00;66.50
78886;DHT22;68269;52.514;5.722;2023-03-19T13:38:01;12.10;66.50
78886;DHT22;68269;52.514;5.722;2023-03-19T13:40:41;12.00;66.50
78886;DHT22;68269;52.514;5.722;2023-03-19T13:49:21;11.90;66.60
78886;DHT22;68269;52.514;5.722;2023-03-19T13:51:57;11.90;66.50
78886;DHT22;68269;52.514;5.722;2023-03-19T13:54:36;11.90;66.60
78886;DHT22;68269;52.514;5.722;2023-03-19T13:57:21;11.90;66.60
78886;DHT22;68269;52.514;5.722;2023-03-19T14:03:00;11.90;66.60
78886;DHT22;68269;52.514;5.722;2023-03-19T14:05:33;11.90;66.50
78886;DHT22;68269;52.514;5.722;2023-03-19T14:08:14;12.00;66.50
78886;DHT22;68269;52.514;5.722;2023-03-19T14:10:46;12.00;66.50
78886;DHT22;68269;52.514;5.722;2023-03-19T14:13:22;12.10;66.50
78886;DHT22;68269;52.514;5.722;2023-03-19T14:16:00;12.10;66.50
78886;DHT22;68269;52.514;5.722;2023-03-19T14:18:32;12.10;66.50
78886;DHT22;68269;52.514;5.722;2023-03-19T14:21:05;12.10;66.50
78886;DHT22;68269;52.514;5.722;2023-03-19T14:23:40;12.10;66.50
78886;DHT22;68269;52.514;5.722;2023-03-19T14:26:14;12.20;66.40
78886;DHT22;68269;52.514;5.722;2023-03-19T14:28:58;12.10;66.40
78886;DHT22;68269;52.514;5.722;2023-03-19T14:31:34;12.10;66.40
78886;DHT22;68269;52.514;5.722;2023-03-19T14:34:23;12.00;66.50
78886;DHT22;68269;52.514;5.722;2023-03-19T14:36:58;12.00;66.50
78886;DHT22;68269;52.514;5.722;2023-03-19T14:39:33;12.00;66.60
78886;DHT22;68269;52.514;5.722;2023-03-19T14:42:12;11.90;66.70
78886;DHT22;68269;52.514;5.722;2023-03-19T14:45:06;11.90;66.70
78886;DHT22;68269;52.514;5.722;2023-03-19T14:53:31;12.00;66.60
78886;DHT22;68269;52.514;5.722;2023-03-19T14:56:11;11.90;66.60
78886;DHT22;68269;52.514;5.722;2023-03-19T14:58:48;11.90;66.60
78886;DHT22;68269;52.514;5.722;2023-03-19T15:01:19;12.00;66.50
78886;DHT22;68269;52.514;5.722;2023-03-19T15:03:54;12.00;66.50
78886;DHT22;68269;52.514;5.722;2023-03-19T15:06:25;12.00;66.50
78886;DHT22;68269;52.514;5.722;2023-03-19T15:08:59;12.00;66.50
78886;DHT22;68269;52.514;5.722;2023-03-19T15:14:48;12.00;66.50
78886;DHT22;68269;52.514;5.722;2023-03-19T15:17:23;12.10;66.40
78886;DHT22;68269;52.514;5.722;2023-03-19T15:19:54;12.10;66.40
78886;DHT22;68269;52.514;5.722;2023-03-19T15:22:26;12.10;66.40
78886;DHT22;68269;52.514;5.722;2023-03-19T15:25:04;12.20;66.40
78886;DHT22;68269;52.514;5.722;2023-03-19T15:27:37;12.20;66.50
78886;DHT22;68269;52.514;5.722;2023-03-19T15:30:19;12.20;66.50
78886;DHT22;68269;52.514;5.722;2023-03-19T15:32:49;12.10;66.50
78886;DHT22;68269;52.514;5.722;2023-03-19T15:35:19;12.10;66.60
78886;DHT22;68269;52.514;5.722;2023-03-19T15:37:52;12.10;66.60
78886;DHT22;68269;52.514;5.722;2023-03-19T15:40:22;12.00;66.60
78886;DHT22;68269;52.514;5.722;2023-03-19T15:42:59;12.00;66.70
78886;DHT22;68269;52.514;5.722;2023-03-19T15:45:30;12.00;66.70
78886;DHT22;68269;52.514;5.722;2023-03-19T15:48:04;11.90;66.70
78886;DHT22;68269;52.514;5.722;2023-03-19T15:50:36;12.00;66.60
78886;DHT22;68269;52.514;5.722;2023-03-19T15:53:11;11.90;66.60
78886;DHT22;68269;52.514;5.722;2023-03-19T15:55:42;12.00;66.60
78886;DHT22;68269;52.514;5.722;2023-03-19T15:58:17;12.00;66.60
78886;DHT22;68269;52.514;5.722;2023-03-19T16:00:50;12.00;66.60
78886;DHT22;68269;52.514;5.722;2023-03-19T16:03:24;12.00;66.60
78886;DHT22;68269;52.514;5.722;2023-03-19T16:05:59;12.00;66.60
78886;DHT22;68269;52.514;5.722;2023-03-19T16:08:29;12.10;66.60
78886;DHT22;68269;52.514;5.722;2023-03-19T16:11:13;12.10;66.60
78886;DHT22;68269;52.514;5.722;2023-03-19T16:13:55;12.00;66.50
78886;DHT22;68269;52.514;5.722;2023-03-19T16:16:28;12.00;66.50
78886;DHT22;68269;52.514;5.722;2023-03-19T16:18:57;12.00;66.50
78886;DHT22;68269;52.514;5.722;2023-03-19T16:21:33;12.00;66.50
78886;DHT22;68269;52.514;5.722;2023-03-19T16:24:12;12.10;66.40
78886;DHT22;68269;52.514;5.722;2023-03-19T16:26:44;12.10;66.40
78886;DHT22;68269;52.514;5.722;2023-03-19T16:29:22;12.10;66.40
78886;DHT22;68269;52.514;5.722;2023-03-19T16:31:57;12.10;66.40
78886;DHT22;68269;52.514;5.722;2023-03-19T16:34:35;12.10;66.40
78886;DHT22;68269;52.514;5.722;2023-03-19T16:37:24;12.10;66.40